Time;durP1;ratioP1;P1;durP2;ratioP2;P2;SDS_P1;SDS_P2;PMS_P1;PMS_P2;Temp;Humidity;BMP_temperature;BMP_pressure;BME280_temperature;BME280_humidity;BME280_pressure;Samples;Min_cycle;Max_cycle;Signal;HPM_P1;HPM_P2
2022/12/07 00:01:17;;;;;;;62.10;38.47;;;;;;;8.88;100.00;100051.66;5053443;28;20533;-70
2022/12/07 00:03:45;;;;;;;61.00;40.10;;;;;;;8.93;100.00;100048.19;5053213;28;20040;-70
2022/12/07 00:06:12;;;;;;;64.78;42.53;;;;;;;8.75;100.00;100018.13;5053201;28;20748;-70
2022/12/07 00:08:38;;;;;;;69.47;42.80;;;;;;;8.76;100.00;100007.09;5052912;28;20450;-70
2022/12/07 00:11:06;;;;;;;65.00;42.65;;;;;;;9.14;100.00;100079.84;5051382;28;20025;-70
2022/12/07 00:13:32;;;;;;;64.50;41.42;;;;;;;9.05;100.00;100065.66;5052926;28;20120;-70
2022/12/07 00:16:10;;;;;;;64.18;41.33;;;;;;;8.61;100.00;99995.59;5052887;28;20043;-69
2022/12/07 00:18:36;;;;;;;63.72;38.85;;;;;;;8.86;100.00;100058.44;5050833;28;20032;-70
2022/12/07 00:21:06;;;;;;;59.40;37.67;;;;;;;9.08;100.00;100085.03;5052476;28;20045;-69
2022/12/07 00:23:33;;;;;;;57.40;34.45;;;;;;;8.60;100.00;100009.13;5051352;28;20032;-69
2022/12/07 00:26:07;;;;;;;47.25;29.88;;;;;;;8.91;100.00;100049.06;5052634;28;20052;-68
2022/12/07 00:28:33;;;;;;;50.75;32.28;;;;;;;8.64;100.00;100005.66;5052547;28;20029;-67
2022/12/07 00:31:10;;;;;;;51.20;33.28;;;;;;;9.09;100.00;100095.16;5050668;28;20061;-70
2022/12/07 00:33:38;;;;;;;47.05;32.15;;;;;;;8.82;100.00;100042.47;5051257;28;20025;-70
2022/12/07 00:36:07;;;;;;;50.38;31.88;;;;;;;9.06;100.00;100076.63;5052818;28;20028;-70
2022/12/07 00:38:34;;;;;;;55.80;35.42;;;;;;;8.67;100.00;100000.53;5051165;28;20555;-70
2022/12/07 00:41:02;;;;;;;59.22;37.47;;;;;;;8.75;100.00;100023.19;5052708;28;20111;-68
2022/12/07 00:43:28;;;;;;;58.95;36.00;;;;;;;8.64;100.00;99998.06;5052316;28;20029;-70
2022/12/07 00:45:54;;;;;;;60.33;37.25;;;;;;;9.07;100.00;100078.31;5052165;28;20040;-70
2022/12/07 00:48:21;;;;;;;60.95;39.00;;;;;;;8.63;100.00;100005.69;5051020;28;20086;-70
2022/12/07 00:50:46;;;;;;;59.90;37.13;;;;;;;8.45;100.00;99988.31;5052661;28;20132;-70
2022/12/07 00:53:12;;;;;;;60.33;38.72;;;;;;;8.45;100.00;99990.84;5052156;28;20029;-70
2022/12/07 00:55:38;;;;;;;58.65;37.75;;;;;;;9.01;100.00;100091.13;5051954;28;20029;-68
2022/12/07 00:58:03;;;;;;;57.10;36.17;;;;;;;8.96;100.00;100070.06;5052168;28;20036;-70
2022/12/07 01:00:29;;;;;;;67.20;40.00;;;;;;;8.98;100.00;100076.78;5050885;28;20136;-70
2022/12/07 01:02:55;;;;;;;59.67;35.35;;;;;;;8.62;100.00;100022.59;5051066;28;20036;-69
2022/12/07 01:05:20;;;;;;;62.95;36.70;;;;;;;8.50;100.00;99991.56;5051712;28;20035;-69
2022/12/07 01:07:46;;;;;;;64.60;36.58;;;;;;;8.96;100.00;100067.53;5051773;28;20043;-69
2022/12/07 01:10:12;;;;;;;56.58;33.03;;;;;;;8.76;100.00;100037.53;5050283;28;20412;-69
2022/12/07 01:12:38;;;;;;;53.35;32.08;;;;;;;8.77;100.00;100045.09;5051270;28;20102;-70
2022/12/07 01:15:04;;;;;;;52.05;31.05;;;;;;;8.37;100.00;99977.50;5051465;28;20070;-69
2022/12/07 01:17:30;;;;;;;51.47;27.70;;;;;;;8.20;100.00;99975.25;5051547;28;20025;-69
2022/12/07 01:19:55;;;;;;;61.50;30.13;;;;;;;8.20;100.00;99952.44;5051833;28;20107;-70
2022/12/07 01:22:20;;;;;;;52.30;27.88;;;;;;;8.62;100.00;100030.19;5050747;28;20032;-70
2022/12/07 01:24:47;;;;;;;50.55;26.88;;;;;;;8.57;100.00;100003.28;5050789;28;20033;-69
2022/12/07 01:27:13;;;;;;;51.72;26.67;;;;;;;8.23;100.00;99947.34;5050855;28;20599;-69
2022/12/07 01:29:39;;;;;;;63.65;31.10;;;;;;;8.73;100.00;100012.25;5050249;28;20025;-69
2022/12/07 01:32:04;;;;;;;51.80;25.17;;;;;;;8.23;100.00;99951.56;5051324;28;20036;-70
2022/12/07 01:34:30;;;;;;;52.50;24.65;;;;;;;8.69;100.00;100025.84;5051154;28;20573;-70
2022/12/07 01:36:55;;;;;;;103.80;50.60;;;;;;;8.23;100.00;99951.56;5038884;28;20036;-70
2022/12/07 01:39:21;;;;;;;67.07;30.50;;;;;;;8.74;100.00;100029.97;5044675;28;20164;-69
2022/12/07 01:41:47;;;;;;;69.07;27.40;;;;;;;8.83;100.00;100028.94;5039186;28;20021;-69
2022/12/07 01:44:15;;;;;;;53.33;23.60;;;;;;;8.76;100.00;100040.06;5050978;28;20480;-69
2022/12/07 01:46:43;;;;;;;52.55;22.85;;;;;;;8.75;100.00;100026.53;5051198;28;20036;-69
2022/12/07 01:49:14;;;;;;;58.33;25.50;;;;;;;8.81;100.00;100025.59;5050806;28;20052;-69
2022/12/07 01:51:42;;;;;;;57.65;24.70;;;;;;;8.40;100.00;99952.94;5050968;28;20039;-69
2022/12/07 01:54:09;;;;;;;54.10;24.05;;;;;;;8.56;100.00;99986.41;5050423;28;20487;-69
2022/12/07 01:56:37;;;;;;;56.42;24.98;;;;;;;8.79;100.00;100017.19;5050406;28;20041;-69
2022/12/07 01:59:03;;;;;;;56.40;25.55;;;;;;;8.26;100.00;99943.97;5051398;28;20029;-69
2022/12/07 02:01:28;;;;;;;57.15;26.58;;;;;;;8.63;100.00;99993.03;5048665;28;20041;-69
2022/12/07 02:03:54;;;;;;;54.30;25.83;;;;;;;8.37;100.00;99932.75;5049384;28;20063;-69
2022/12/07 02:06:24;;;;;;;53.80;24.70;;;;;;;8.71;100.00;100007.19;5050518;28;20051;-68
2022/12/07 02:08:49;;;;;;;55.10;24.70;;;;;;;7.94;100.00;99872.81;5051034;28;20488;-69
2022/12/07 02:11:16;;;;;;;55.53;23.95;;;;;;;8.19;100.00;99925.47;5048849;28;20059;-69
2022/12/07 02:13:44;;;;;;;58.67;25.42;;;;;;;8.76;100.00;100014.72;5050386;28;20029;-70
2022/12/07 02:16:31;;;;;;;62.50;27.15;;;;;;;8.78;100.00;100002.84;5050567;28;20120;-69
2022/12/07 02:18:56;;;;;;;55.78;23.55;;;;;;;8.86;100.00;100013.66;5050711;28;20061;-70
2022/12/07 02:22:00;;;;;;;49.70;23.52;;;;;;;8.65;100.00;100007.34;5050754;28;20087;-69
2022/12/07 02:25:00;;;;;;;52.90;23.77;;;;;;;8.91;100.00;100004.28;5050359;28;20045;-70
2022/12/07 02:27:37;;;;;;;53.92;23.63;;;;;;;8.73;100.00;99997.06;5043065;28;20040;-70
2022/12/07 02:30:13;;;;;;;54.75;24.05;;;;;;;8.89;100.00;99995.03;5037217;28;20091;-70
2022/12/07 02:32:59;;;;;;;56.83;23.70;;;;;;;8.83;100.00;99997.69;5047270;28;20041;-70
2022/12/07 02:35:33;;;;;;;53.05;23.48;;;;;;;8.57;100.00;99996.53;5050477;28;20032;-70
2022/12/07 02:38:04;;;;;;;53.05;24.02;;;;;;;8.84;100.00;100012.00;5050095;28;20032;-70
2022/12/07 02:40:39;;;;;;;59.67;27.17;;;;;;;8.79;100.00;100007.06;5050229;28;20029;-70
2022/12/07 02:43:11;;;;;;;53.90;25.92;;;;;;;8.62;100.00;99953.34;5049922;28;20487;-69
2022/12/07 02:45:40;;;;;;;55.72;25.50;;;;;;;8.65;100.00;99988.75;5050032;28;20043;-70
2022/12/07 02:48:09;;;;;;;53.90;23.75;;;;;;;8.24;100.00;99933.81;5049774;28;20033;-69
2022/12/07 02:50:34;;;;;;;57.50;24.92;;;;;;;8.70;100.00;99997.09;5050300;28;20083;-69
2022/12/07 02:53:00;;;;;;;53.03;25.27;;;;;;;8.32;100.00;99906.66;5049807;28;20566;-68
2022/12/07 02:55:33;;;;;;;53.63;25.13;;;;;;;8.56;100.00;99948.38;5049596;28;20036;-68
2022/12/07 02:58:14;;;;;;;61.83;25.92;;;;;;;8.62;100.00;99994.72;5050075;28;20033;-68
2022/12/07 03:00:58;;;;;;;56.42;25.52;;;;;;;8.65;100.00;99969.34;5048288;28;20144;-68
2022/12/07 03:03:24;;;;;;;57.08;26.15;;;;;;;7.87;100.00;99839.19;5049891;28;20052;-68
2022/12/07 03:06:10;;;;;;;58.25;27.35;;;;;;;8.39;100.00;99912.44;5049500;28;20068;-68
2022/12/07 03:08:44;;;;;;;54.10;25.63;;;;;;;8.91;100.00;99978.94;5049604;28;20037;-68
2022/12/07 03:11:15;;;;;;;59.53;30.40;;;;;;;8.42;100.00;99925.88;5049439;28;20035;-67
2022/12/07 03:14:07;;;;;;;62.20;31.20;;;;;;;8.04;100.00;99880.22;5049282;28;20029;-68
2022/12/07 03:16:57;;;;;;;61.08;29.38;;;;;;;8.66;100.00;99967.63;5049550;28;20032;-68
2022/12/07 03:19:25;;;;;;;63.78;30.70;;;;;;;8.78;100.00;99987.63;5049305;28;20044;-69
2022/12/07 03:22:02;;;;;;;65.47;28.80;;;;;;;8.40;100.00;99973.19;5047833;28;20036;-69
2022/12/07 03:24:36;;;;;;;58.50;25.67;;;;;;;8.54;100.00;99999.09;5048087;28;20112;-69
2022/12/07 03:27:11;;;;;;;53.20;24.30;;;;;;;8.51;100.00;99995.81;5048569;28;20041;-69
2022/12/07 03:29:44;;;;;;;53.25;24.30;;;;;;;8.49;100.00;99988.25;5047172;28;20036;-69
2022/12/07 03:32:15;;;;;;;51.80;22.80;;;;;;;8.62;100.00;99996.41;5049294;28;20032;-69
2022/12/07 03:34:49;;;;;;;55.40;23.70;;;;;;;8.26;100.00;99924.50;5049810;28;20033;-69
2022/12/07 03:37:26;;;;;;;48.47;22.83;;;;;;;8.61;100.00;99988.00;5049382;28;20032;-69
2022/12/07 03:40:07;;;;;;;47.78;22.80;;;;;;;8.69;100.00;99985.31;5049264;28;20043;-69
2022/12/07 03:42:33;;;;;;;53.03;24.75;;;;;;;8.62;100.00;99987.13;5049393;28;20498;-69
2022/12/07 03:45:01;;;;;;;48.63;24.92;;;;;;;8.63;100.00;99975.28;5049028;28;20119;-69
2022/12/07 03:47:55;;;;;;;42.70;23.63;;;;;;;8.48;100.00;99990.78;5049370;28;20033;-69
2022/12/07 03:50:36;;;;;;;48.50;25.42;;;;;;;8.53;100.00;99979.72;5039866;28;20036;-68
2022/12/07 03:53:28;;;;;;;45.60;26.88;;;;;;;8.60;100.00;99981.25;5049236;28;20029;-69
2022/12/07 03:55:55;;;;;;;42.13;22.90;;;;;;;8.57;100.00;99970.34;5044327;28;20045;-69
2022/12/07 03:58:23;;;;;;;37.95;22.33;;;;;;;8.18;100.00;99956.69;5047859;28;20033;-70
2022/12/07 04:00:49;;;;;;;44.75;23.63;;;;;;;7.90;100.00;99882.97;5049177;28;20048;-69
2022/12/07 04:03:15;;;;;;;44.08;26.33;;;;;;;7.68;100.00;99832.81;5048734;28;20055;-70
2022/12/07 04:05:40;;;;;;;45.10;26.33;;;;;;;8.09;100.00;99898.66;5048705;28;20033;-69
2022/12/07 04:08:06;;;;;;;47.55;25.48;;;;;;;8.47;100.00;99966.31;5049423;28;20036;-70
2022/12/07 04:10:31;;;;;;;46.60;26.33;;;;;;;8.31;100.00;99944.69;5047899;28;20499;-69
2022/12/07 04:12:57;;;;;;;51.42;27.38;;;;;;;8.03;100.00;99888.66;5049075;28;20056;-67
2022/12/07 04:15:22;;;;;;;53.63;28.42;;;;;;;7.64;100.00;99823.63;5047618;28;20104;-71
2022/12/07 04:17:48;;;;;;;59.83;28.30;;;;;;;7.98;100.00;99885.38;5048760;28;20037;-70
2022/12/07 04:20:13;;;;;;;69.50;30.08;;;;;;;8.38;100.00;99963.94;5047580;28;20044;-69
2022/12/07 04:22:39;;;;;;;69.57;29.20;;;;;;;8.46;100.00;99965.47;5048307;28;20082;-68
2022/12/07 04:25:05;;;;;;;77.32;29.55;;;;;;;7.97;100.00;99878.66;5047849;28;20037;-70
2022/12/07 04:27:30;;;;;;;72.60;29.17;;;;;;;8.24;100.00;99928.75;5048862;28;20031;-70
2022/12/07 04:29:56;;;;;;;71.50;28.17;;;;;;;8.07;100.00;99902.06;5048368;28;20443;-69
2022/12/07 04:32:22;;;;;;;72.35;28.17;;;;;;;8.46;100.00;99957.88;5048417;28;20114;-69
2022/12/07 04:34:48;;;;;;;49.13;22.50;;;;;;;9.27;100.00;99962.88;5048767;28;20033;-70
2022/12/07 04:37:13;;;;;;;57.15;24.58;;;;;;;8.93;100.00;99874.94;5048898;28;20033;-71
2022/12/07 04:39:39;;;;;;;69.75;28.60;;;;;;;8.76;100.00;99946.28;5051159;28;20075;-69
2022/12/07 04:42:04;;;;;;;65.18;28.83;;;;;;;8.63;100.00;99980.34;5053080;28;20028;-66
2022/12/07 04:44:30;;;;;;;64.05;27.58;;;;;;;8.10;100.00;99892.72;5051970;28;20068;-69
2022/12/07 04:46:56;;;;;;;62.70;27.27;;;;;;;8.52;100.00;99974.66;5050196;28;20032;-67
2022/12/07 04:49:23;;;;;;;65.68;28.10;;;;;;;8.20;100.00;99901.81;5051781;28;20479;-68
2022/12/07 04:51:48;;;;;;;65.22;28.10;;;;;;;8.55;100.00;99965.31;5052131;28;20059;-69
2022/12/07 04:54:15;;;;;;;63.90;27.92;;;;;;;8.16;100.00;99912.84;5050025;28;20147;-68
2022/12/07 04:56:40;;;;;;;73.07;29.92;;;;;;;8.52;100.00;99974.66;5052370;28;20067;-69
2022/12/07 04:59:06;;;;;;;80.13;29.85;;;;;;;8.42;100.00;99958.81;5051652;28;20115;-69
2022/12/07 05:01:32;;;;;;;73.40;30.00;;;;;;;8.48;100.00;99970.50;5050272;28;20795;-68
2022/12/07 05:03:58;;;;;;;74.90;29.05;;;;;;;8.08;100.00;99899.50;5051861;28;20128;-68
2022/12/07 05:06:23;;;;;;;76.47;29.83;;;;;;;8.07;100.00;99909.66;5052275;28;20111;-67
2022/12/07 05:08:49;;;;;;;67.00;28.27;;;;;;;7.97;100.00;99878.66;5051612;28;20061;-66
2022/12/07 05:13:59;;;;;;;78.35;30.13;;;;;;;8.05;100.00;99902.13;5051664;28;20039;-68
2022/12/07 05:16:24;;;;;;;70.07;28.60;;;;;;;8.49;100.00;99967.97;5049837;28;20029;-68
2022/12/07 05:18:50;;;;;;;109.80;31.60;;;;;;;8.25;100.00;99975.19;5051328;28;20041;-68
2022/12/07 05:21:15;;;;;;;101.20;30.83;;;;;;;8.16;100.00;99968.56;5051028;28;20518;-69
2022/12/07 05:23:41;;;;;;;78.05;28.20;;;;;;;7.80;100.00;99873.06;5051011;28;20067;-70
2022/12/07 05:26:06;;;;;;;94.40;29.77;;;;;;;7.90;100.00;99902.41;5051337;28;20095;-66
2022/12/07 05:28:31;;;;;;;92.22;30.23;;;;;;;8.24;100.00;99951.53;5049789;28;20492;-66
2022/12/07 05:30:57;;;;;;;114.60;32.92;;;;;;;8.29;100.00;99972.59;5051197;28;20040;-67
2022/12/07 05:33:22;;;;;;;126.10;34.05;;;;;;;8.23;100.00;99957.47;5050796;28;20032;-68
2022/12/07 05:35:48;;;;;;;133.57;33.25;;;;;;;8.14;100.00;99937.38;5048378;28;20118;-66
2022/12/07 05:38:13;;;;;;;173.75;34.17;;;;;;;8.20;100.00;99980.31;5031101;28;20430;-65
2022/12/07 05:40:39;;;;;;;113.70;32.42;;;;;;;7.68;100.00;99865.72;5030281;28;20095;-65
2022/12/07 05:43:04;;;;;;;121.32;32.92;;;;;;;7.64;100.00;99884.34;5031611;28;20033;-66
2022/12/07 05:45:29;;;;;;;123.30;32.90;;;;;;;8.54;100.00;99945.91;5037084;28;20465;-69
2022/12/07 05:47:55;;;;;;;97.25;32.72;;;;;;;7.72;100.00;99901.06;5039886;28;20038;-65
2022/12/07 05:50:20;;;;;;;128.68;31.60;;;;;;;7.59;100.00;99884.41;5050716;28;20467;-66
2022/12/07 05:52:46;;;;;;;125.88;32.28;;;;;;;7.98;100.00;99961.31;5050289;28;20029;-67
2022/12/07 05:55:11;;;;;;;173.25;31.23;;;;;;;7.85;100.00;99952.25;5049083;28;20056;-66
2022/12/07 05:57:36;;;;;;;142.05;31.75;;;;;;;7.85;100.00;99948.03;5048801;28;20115;-66
2022/12/07 06:00:04;;;;;;;148.20;32.33;;;;;;;7.50;100.00;99897.22;5049729;28;20086;-66
2022/12/07 06:02:29;;;;;;;177.10;30.98;;;;;;;7.45;100.00;99881.28;5049624;28;20028;-66
2022/12/07 06:04:54;;;;;;;88.82;30.27;;;;;;;7.19;100.00;99827.78;5048405;28;20024;-66
2022/12/07 06:07:20;;;;;;;110.82;29.25;;;;;;;7.63;100.00;99882.66;5049902;28;20120;-66
2022/12/07 06:09:45;;;;;;;112.03;28.95;;;;;;;7.87;100.00;99925.22;5049743;28;20029;-66
2022/12/07 06:14:56;;;;;;;72.55;27.52;;;;;;;8.20;100.00;99971.91;5049461;28;20510;-66
2022/12/07 06:17:22;;;;;;;69.63;26.73;;;;;;;7.74;100.00;99858.00;5049604;28;20425;-66
2022/12/07 06:19:48;;;;;;;67.35;25.60;;;;;;;7.72;100.00;99897.69;5050074;28;20021;-66
2022/12/07 06:22:13;;;;;;;70.85;27.90;;;;;;;8.23;100.00;99967.59;5048662;28;20476;-66
2022/12/07 06:24:39;;;;;;;90.10;30.25;;;;;;;7.71;100.00;99885.88;5049843;28;20033;-66
2022/12/07 06:27:05;;;;;;;93.03;33.72;;;;;;;8.23;100.00;99961.69;5049362;28;20081;-66
2022/12/07 06:29:31;;;;;;;88.00;34.95;;;;;;;8.16;100.00;99983.75;5049826;28;20472;-66
2022/12/07 06:31:56;;;;;;;89.05;35.42;;;;;;;7.78;100.00;99874.81;5050052;28;20036;-66
2022/12/07 06:34:23;;;;;;;86.22;33.97;;;;;;;8.50;100.00;99974.69;5049861;28;20031;-65
2022/12/07 06:36:51;;;;;;;75.15;29.52;;;;;;;8.55;100.00;99975.44;5048501;28;20047;-66
2022/12/07 06:39:22;;;;;;;67.70;27.98;;;;;;;8.05;100.00;99902.13;5049908;28;20021;-67
2022/12/07 06:41:48;;;;;;;63.35;27.13;;;;;;;8.42;100.00;99971.47;5048334;28;20029;-66
2022/12/07 06:44:14;;;;;;;72.55;28.05;;;;;;;8.02;100.00;99892.06;5048120;28;20025;-66
2022/12/07 06:46:39;;;;;;;69.80;27.08;;;;;;;8.56;100.00;99969.50;5049842;28;20103;-65
2022/12/07 06:49:05;;;;;;;64.10;25.67;;;;;;;8.15;100.00;99888.41;5049450;28;20064;-66
2022/12/07 06:51:32;;;;;;;64.38;26.77;;;;;;;8.13;100.00;99890.16;5049415;28;20025;-65
2022/12/07 06:53:57;;;;;;;81.97;31.55;;;;;;;7.90;100.00;99893.09;5049460;28;20041;-65
2022/12/07 06:56:23;;;;;;;82.20;35.78;;;;;;;8.51;100.00;99966.25;5049488;28;20045;-65
2022/12/07 06:58:49;;;;;;;83.72;37.50;;;;;;;8.53;100.00;99961.97;5049145;28;20032;-66
2022/12/07 07:01:16;;;;;;;83.10;38.08;;;;;;;8.26;100.00;99901.72;5048610;28;20052;-65
2022/12/07 07:03:42;;;;;;;90.38;43.33;;;;;;;8.32;100.00;99888.94;5049535;28;20499;-65
2022/12/07 07:06:08;;;;;;;94.70;42.78;;;;;;;8.17;100.00;99884.16;5049308;28;20107;-65
2022/12/07 07:08:35;;;;;;;86.25;40.67;;;;;;;8.34;100.00;99921.84;5049161;28;20017;-65
2022/12/07 07:11:00;;;;;;;81.32;36.30;;;;;;;8.63;100.00;99960.94;5049627;28;20533;-65
2022/12/07 07:13:27;;;;;;;80.57;37.15;;;;;;;8.60;100.00;99944.94;5048896;28;20028;-66
2022/12/07 07:15:53;;;;;;;88.95;46.88;;;;;;;8.71;100.00;99971.72;5048874;28;20090;-66
2022/12/07 07:18:18;;;;;;;88.32;43.35;;;;;;;8.26;100.00;99891.59;5049477;28;20033;-65
2022/12/07 07:20:44;;;;;;;69.20;31.92;;;;;;;8.63;100.00;99957.56;5048982;28;20058;-66
2022/12/07 07:23:09;;;;;;;77.40;34.25;;;;;;;8.74;100.00;99964.06;5049098;28;20071;-66
2022/12/07 07:25:35;;;;;;;66.13;31.02;;;;;;;8.67;100.00;99972.66;5048723;28;20503;-65
2022/12/07 07:28:00;;;;;;;76.60;33.55;;;;;;;8.82;100.00;99975.72;5047420;28;20682;-66
2022/12/07 07:30:26;;;;;;;68.38;33.05;;;;;;;8.97;100.00;99971.19;5048905;28;20120;-66
2022/12/07 07:32:55;;;;;;;71.88;33.53;;;;;;;8.24;100.00;99905.94;5049233;28;20562;-66
2022/12/07 07:35:21;;;;;;;69.18;34.45;;;;;;;8.91;100.00;99976.41;5048880;28;20120;-66
2022/12/07 07:37:46;;;;;;;81.32;38.00;;;;;;;8.77;100.00;99988.53;5048661;28;20116;-66
2022/12/07 07:40:12;;;;;;;82.28;36.20;;;;;;;9.01;100.00;99989.69;5048844;28;20094;-66
2022/12/07 07:42:37;;;;;;;81.65;38.40;;;;;;;8.37;100.00;99909.13;5048866;28;20097;-66
2022/12/07 07:45:03;;;;;;;79.47;36.78;;;;;;;9.15;100.00;99991.06;5047599;28;20033;-66
2022/12/07 07:47:29;;;;;;;78.72;35.45;;;;;;;9.10;100.00;99990.34;5049015;28;20534;-66
2022/12/07 07:49:54;;;;;;;77.82;37.80;;;;;;;8.23;100.00;99845.22;5048700;28;20089;-67
2022/12/07 07:52:19;;;;;;;68.68;35.67;;;;;;;8.63;100.00;99900.13;5048088;28;20070;-66
2022/12/07 07:54:45;;;;;;;65.05;34.25;;;;;;;8.53;100.00;99936.66;5048606;28;20048;-66
2022/12/07 07:57:10;;;;;;;60.95;32.78;;;;;;;8.97;100.00;99990.63;5048374;28;20400;-66
2022/12/07 07:59:36;;;;;;;57.67;30.88;;;;;;;8.45;100.00;99900.50;5048720;28;20098;-65
2022/12/07 08:02:02;;;;;;;59.75;31.15;;;;;;;8.79;100.00;99920.88;5048289;28;20506;-66
2022/12/07 08:04:27;;;;;;;57.97;31.70;;;;;;;9.28;100.00;100005.16;5048970;28;20025;-66
2022/12/07 08:06:53;;;;;;;51.58;29.63;;;;;;;9.55;100.00;100011.28;5048438;28;20478;-67
2022/12/07 08:09:18;;;;;;;61.85;36.15;;;;;;;9.41;100.00;99944.78;5048701;28;20025;-66
2022/12/07 08:11:45;;;;;;;52.42;29.42;;;;;;;9.15;100.00;100015.59;5049976;28;20033;-66
2022/12/07 08:14:11;;;;;;;56.60;31.70;;;;;;;9.55;100.00;100021.44;5051533;28;20411;-65
2022/12/07 08:16:37;;;;;;;58.05;32.05;;;;;;;9.12;100.00;99931.97;5052148;28;20037;-65
2022/12/07 08:19:04;;;;;;;57.47;33.88;;;;;;;9.35;100.00;100018.50;5052196;28;20032;-66
2022/12/07 08:21:30;;;;;;;61.00;34.13;;;;;;;9.27;100.00;99957.00;5051939;28;20063;-66
2022/12/07 08:23:57;;;;;;;57.38;33.35;;;;;;;9.69;100.00;99999.09;5051818;28;20033;-66
2022/12/07 08:26:22;;;;;;;53.00;29.83;;;;;;;9.69;100.00;100008.41;5052245;28;20582;-65
2022/12/07 08:28:48;;;;;;;48.70;28.23;;;;;;;9.50;100.00;100013.09;5052572;28;20028;-65
2022/12/07 08:31:17;;;;;;;53.30;30.17;;;;;;;9.88;100.00;100018.09;5052613;28;20112;-65
2022/12/07 08:33:45;;;;;;;53.80;32.90;;;;;;;10.09;100.00;100009.09;5050941;28;20044;-65
2022/12/07 08:36:12;;;;;;;48.22;29.38;;;;;;;9.58;100.00;99984.16;5051776;28;20029;-65
2022/12/07 08:38:40;;;;;;;49.63;30.60;;;;;;;9.49;100.00;99953.06;5051975;28;20032;-65
2022/12/07 08:41:06;;;;;;;51.42;31.33;;;;;;;9.69;100.00;99945.78;5052136;28;20487;-65
2022/12/07 08:43:32;;;;;;;51.42;31.75;;;;;;;9.70;100.00;99918.72;5051729;28;20115;-65
2022/12/07 08:46:06;;;;;;;50.65;31.02;;;;;;;10.06;100.00;100015.09;5052004;28;20120;-66
2022/12/07 08:48:34;;;;;;;51.70;30.60;;;;;;;9.93;100.00;100011.19;5052354;28;20597;-66
2022/12/07 08:51:01;;;;;;;37.35;24.40;;;;;;;10.05;100.00;100015.13;5051625;28;20117;-66
2022/12/07 08:53:28;;;;;;;38.15;25.65;;;;;;;9.67;100.00;100021.16;5051814;28;20035;-66
2022/12/07 08:55:53;;;;;;;41.30;27.92;;;;;;;10.23;100.00;100007.91;5052348;28;20469;-66
2022/12/07 08:58:19;;;;;;;47.05;30.00;;;;;;;9.97;100.00;99966.25;5051735;28;20029;-65
2022/12/07 09:00:44;;;;;;;47.55;28.00;;;;;;;9.90;100.00;99993.50;5051445;28;20044;-65
2022/12/07 09:03:10;;;;;;;44.65;28.63;;;;;;;10.31;100.00;100007.72;5051799;28;20448;-66
2022/12/07 09:05:35;;;;;;;48.63;29.90;;;;;;;9.41;100.00;99881.38;5051712;28;20037;-67
2022/12/07 09:08:01;;;;;;;50.42;31.70;;;;;;;9.79;100.00;99954.84;5049810;28;20447;-66
2022/12/07 09:10:28;;;;;;;51.92;31.27;;;;;;;10.26;100.00;99959.56;5050245;28;20041;-66
2022/12/07 09:12:54;;;;;;;49.33;32.03;;;;;;;10.63;100.00;100045.81;5051640;28;20028;-66
2022/12/07 09:15:19;;;;;;;53.10;33.20;;;;;;;10.24;100.00;99955.41;5050199;28;20033;-66
2022/12/07 09:17:44;;;;;;;56.85;33.97;;;;;;;10.04;100.00;99960.16;5051310;28;20106;-66
2022/12/07 09:20:10;;;;;;;55.35;35.53;;;;;;;10.71;100.00;100018.47;5051501;28;20103;-66
2022/12/07 09:22:36;;;;;;;50.00;29.48;;;;;;;10.57;100.00;100027.34;5049954;28;20029;-66
2022/12/07 09:25:03;;;;;;;54.15;33.20;;;;;;;10.40;100.00;100010.84;5049875;28;20065;-65
2022/12/07 09:27:28;;;;;;;55.72;34.47;;;;;;;10.32;100.00;100024.59;5051255;28;20142;-67
2022/12/07 09:29:54;;;;;;;58.47;36.70;;;;;;;10.70;100.00;100049.00;5049999;28;20443;-66
2022/12/07 09:32:20;;;;;;;64.88;42.05;;;;;;;10.43;100.00;99949.78;5049585;28;20475;-66
2022/12/07 09:34:45;;;;;;;57.47;34.20;;;;;;;10.86;100.00;100025.66;5051042;28;20436;-65
2022/12/07 09:37:11;;;;;;;47.58;29.63;;;;;;;10.53;100.00;100031.69;5050350;28;20424;-66
2022/12/07 09:39:40;;;;;;;46.38;29.08;;;;;;;10.85;100.00;100028.25;5050569;28;20124;-66
2022/12/07 09:42:07;;;;;;;50.03;28.38;;;;;;;11.02;100.00;100016.72;5049644;28;20036;-66
2022/12/07 09:44:34;;;;;;;38.80;23.73;;;;;;;10.48;100.00;99953.91;5050562;28;20124;-66
2022/12/07 09:47:00;;;;;;;46.15;25.40;;;;;;;11.04;100.00;100019.19;5050537;28;20502;-67
2022/12/07 09:49:30;;;;;;;37.22;23.38;;;;;;;10.83;100.00;100009.66;5049685;28;20028;-65
2022/12/07 09:52:17;;;;;;;44.25;24.02;;;;;;;10.84;100.00;99998.59;5050606;28;20025;-66
2022/12/07 09:54:48;;;;;;;34.83;20.80;;;;;;;10.91;100.00;100035.72;5050714;28;20033;-65
2022/12/07 09:57:13;;;;;;;35.55;20.85;;;;;;;10.09;100.00;99948.16;5050751;28;20029;-65
2022/12/07 09:59:43;;;;;;;34.80;22.65;;;;;;;10.62;100.00;100010.28;5050661;28;20064;-65
2022/12/07 10:02:24;;;;;;;42.95;22.77;;;;;;;11.33;100.00;100003.88;5050564;28;20068;-66
2022/12/07 10:04:49;;;;;;;37.85;21.80;;;;;;;11.11;100.00;99926.56;5048853;28;20082;-68
2022/12/07 10:07:14;;;;;;;35.28;22.45;;;;;;;11.53;100.00;100008.41;5030787;28;20456;-68
2022/12/07 10:09:40;;;;;;;36.63;22.50;;;;;;;11.32;100.00;100020.06;4329087;28;10001273;-69
2022/12/07 10:12:11;;;;;;;40.53;24.38;;;;;;;11.30;100.00;100017.56;5024459;28;20124;-67
2022/12/07 10:14:40;;;;;;;42.53;23.65;;;;;;;10.98;100.00;99933.75;5024528;28;20099;-68
2022/12/07 10:17:31;;;;;;;36.50;21.98;;;;;;;11.61;100.00;99997.06;5026753;28;20120;-68
2022/12/07 10:20:19;;;;;;;23.20;14.23;;;;;;;10.58;100.00;99930.69;5026108;28;20048;-69
2022/12/07 10:22:58;;;;;;;28.08;17.05;;;;;;;11.42;100.00;100006.16;5027249;28;20037;-68
2022/12/07 10:25:27;;;;;;;26.55;16.45;;;;;;;11.06;100.00;99982.69;5025693;28;20072;-68
2022/12/07 10:28:14;;;;;;;18.88;12.63;;;;;;;10.51;100.00;99977.50;5026713;28;20040;-68
2022/12/07 10:30:59;;;;;;;26.63;16.08;;;;;;;10.83;100.00;100007.97;5026437;28;20033;-67
2022/12/07 10:33:37;;;;;;;33.45;19.30;;;;;;;10.75;100.00;99930.22;5026377;28;20052;-70
2022/12/07 10:36:22;;;;;;;28.92;18.30;;;;;;;10.96;100.00;100011.81;5024142;28;20119;-70
2022/12/07 10:39:11;;;;;;;28.92;18.02;;;;;;;11.00;100.00;100012.53;5018185;28;20049;-68
2022/12/07 10:41:53;;;;;;;31.92;18.00;;;;;;;11.79;100.00;99960.84;5018297;28;20040;-70
2022/12/07 10:44:22;;;;;;;33.85;21.20;;;;;;;11.04;100.00;99927.63;5054262;28;20121;-68
2022/12/07 10:47:15;;;;;;;49.25;20.63;;;;;;;11.64;100.00;99912.94;5050439;28;20037;-70
2022/12/07 10:50:01;;;;;;;38.22;19.85;;;;;;;11.88;100.00;99972.47;5050826;28;20460;-68
2022/12/07 10:52:26;;;;;;;30.85;19.80;;;;;;;11.59;100.00;99978.47;5053558;28;20036;-68
2022/12/07 10:55:02;;;;;;;34.15;20.92;;;;;;;11.31;100.00;99982.75;5050858;28;20044;-67
2022/12/07 10:57:53;;;;;;;36.15;19.88;;;;;;;11.59;100.00;99986.09;5050489;28;20116;-68
2022/12/07 11:00:23;;;;;;;28.65;19.13;;;;;;;11.13;100.00;99882.38;5050384;28;20405;-67
2022/12/07 11:03:06;;;;;;;31.80;19.58;;;;;;;11.46;100.00;99976.34;5050302;28;20036;-67
2022/12/07 11:05:40;;;;;;;28.25;16.70;;;;;;;11.38;100.00;99971.50;5049248;28;20064;-67
2022/12/07 11:08:23;;;;;;;29.13;18.08;;;;;;;11.23;100.00;99970.25;5050818;28;20479;-67
2022/12/07 11:10:48;;;;;;;27.98;17.02;;;;;;;11.42;100.00;99974.78;5050495;28;20024;-66
2022/12/07 11:13:36;;;;;;;32.25;18.77;;;;;;;11.14;100.00;99883.22;5050347;28;20107;-67
2022/12/07 11:16:07;;;;;;;32.13;19.58;;;;;;;11.28;100.00;99888.69;5050501;28;20025;-67
2022/12/07 11:19:10;;;;;;;34.08;18.98;;;;;;;11.82;100.00;99957.38;5050911;28;20068;-67
2022/12/07 11:21:56;;;;;;;28.58;18.38;;;;;;;11.40;100.00;99968.91;5050455;28;20048;-71
2022/12/07 11:24:41;;;;;;;30.85;18.90;;;;;;;11.61;100.00;99956.31;5049978;28;20029;-67
2022/12/07 11:27:24;;;;;;;26.55;16.75;;;;;;;12.00;100.00;99944.03;5049010;28;20086;-68